sensor_id;sensor_type;location;lat;lon;timestamp;pressure;altitude;pressure_sealevel;temperature;humidity
56928;BME280;60850;52.502;13.426;2022-09-21T00:00:37;101982.53;;;8.29;100.00
56928;BME280;60850;52.502;13.426;2022-09-21T00:03:24;101982.53;;;8.27;100.00
56928;BME280;60850;52.502;13.426;2022-09-21T00:05:51;101987.84;;;8.29;100.00
56928;BME280;60850;52.502;13.426;2022-09-21T00:08:18;101988.72;;;8.28;100.00
56928;BME280;60850;52.502;13.426;2022-09-21T00:10:48;101986.94;;;8.29;100.00
56928;BME280;60850;52.502;13.426;2022-09-21T00:13:16;101999.34;;;8.28;100.00
56928;BME280;60850;52.502;13.426;2022-09-21T00:15:46;101997.59;;;8.27;100.00
56928;BME280;60850;52.502;13.426;2022-09-21T00:18:13;101997.59;;;8.27;100.00
56928;BME280;60850;52.502;13.426;2022-09-21T00:20:41;101994.94;;;8.27;100.00
56928;BME280;60850;52.502;13.426;2022-09-21T00:23:08;102002.00;;;8.26;100.00
56928;BME280;60850;52.502;13.426;2022-09-21T00:25:35;101988.69;;;8.22;100.00
56928;BME280;60850;52.502;13.426;2022-09-21T00:28:03;101994.03;;;8.26;100.00
56928;BME280;60850;52.502;13.426;2022-09-21T00:30:30;101992.28;;;8.27;100.00
56928;BME280;60850;52.502;13.426;2022-09-21T00:32:58;101996.69;;;8.26;100.00
56928;BME280;60850;52.502;13.426;2022-09-21T00:35:25;101995.81;;;8.27;100.00
56928;BME280;60850;52.502;13.426;2022-09-21T00:37:52;101999.34;;;8.28;100.00
56928;BME280;60850;52.502;13.426;2022-09-21T00:40:19;102006.44;;;8.29;100.00
56928;BME280;60850;52.502;13.426;2022-09-21T00:42:46;101991.38;;;8.28;100.00
56928;BME280;60850;52.502;13.426;2022-09-21T00:45:13;102003.78;;;8.27;100.00
56928;BME280;60850;52.502;13.426;2022-09-21T00:47:47;102009.09;;;8.27;100.00
56928;BME280;60850;52.502;13.426;2022-09-21T00:50:19;102010.88;;;8.29;100.00
56928;BME280;60850;52.502;13.426;2022-09-21T00:52:52;102004.66;;;8.28;100.00
56928;BME280;60850;52.502;13.426;2022-09-21T00:55:24;102009.09;;;8.27;100.00
56928;BME280;60850;52.502;13.426;2022-09-21T00:57:54;102005.56;;;8.29;100.00
56928;BME280;60850;52.502;13.426;2022-09-21T01:00:21;102008.22;;;8.29;100.00
56928;BME280;60850;52.502;13.426;2022-09-21T01:02:48;102002.88;;;8.24;100.00
56928;BME280;60850;52.502;13.426;2022-09-21T01:05:16;102005.56;;;8.29;100.00
56928;BME280;60850;52.502;13.426;2022-09-21T01:07:45;102007.31;;;8.26;100.00
56928;BME280;60850;52.502;13.426;2022-09-21T01:10:15;102005.56;;;8.29;100.00
56928;BME280;60850;52.502;13.426;2022-09-21T01:12:54;102009.97;;;8.28;100.00
56928;BME280;60850;52.502;13.426;2022-09-21T01:15:31;102015.28;;;8.28;100.00
56928;BME280;60850;52.502;13.426;2022-09-21T01:18:06;102011.72;;;8.24;100.00
56928;BME280;60850;52.502;13.426;2022-09-21T01:21:02;102010.84;;;8.22;100.00
56928;BME280;60850;52.502;13.426;2022-09-21T01:23:44;102015.28;;;8.22;100.00
56928;BME280;60850;52.502;13.426;2022-09-21T01:26:19;102014.38;;;8.21;100.00
56928;BME280;60850;52.502;13.426;2022-09-21T01:29:10;102018.81;;;8.19;100.00
56928;BME280;60850;52.502;13.426;2022-09-21T01:31:43;102014.38;;;8.20;100.00
56928;BME280;60850;52.502;13.426;2022-09-21T01:34:22;102016.13;;;8.16;100.00
56928;BME280;60850;52.502;13.426;2022-09-21T01:36:52;102013.47;;;8.16;100.00
56928;BME280;60850;52.502;13.426;2022-09-21T01:39:21;102024.09;;;8.16;100.00
56928;BME280;60850;52.502;13.426;2022-09-21T01:41:50;102021.44;;;8.13;100.00
56928;BME280;60850;52.502;13.426;2022-09-21T01:44:21;102023.22;;;8.11;100.00
56928;BME280;60850;52.502;13.426;2022-09-21T01:46:49;102029.38;;;8.10;100.00
56928;BME280;60850;52.502;13.426;2022-09-21T01:49:21;102028.53;;;8.11;100.00
56928;BME280;60850;52.502;13.426;2022-09-21T01:51:54;102030.25;;;8.09;100.00
56928;BME280;60850;52.502;13.426;2022-09-21T01:54:29;102029.38;;;8.09;100.00
56928;BME280;60850;52.502;13.426;2022-09-21T01:57:03;102032.03;;;8.09;100.00
56928;BME280;60850;52.502;13.426;2022-09-21T01:59:37;102024.06;;;8.06;100.00
56928;BME280;60850;52.502;13.426;2022-09-21T02:02:11;102017.88;;;8.05;100.00
56928;BME280;60850;52.502;13.426;2022-09-21T02:04:39;102023.19;;;8.05;100.00
56928;BME280;60850;52.502;13.426;2022-09-21T02:07:07;102024.91;;;8.03;100.00
56928;BME280;60850;52.502;13.426;2022-09-21T02:09:35;102022.25;;;8.03;100.00
56928;BME280;60850;52.502;13.426;2022-09-21T02:12:03;102027.56;;;8.02;100.00
56928;BME280;60850;52.502;13.426;2022-09-21T02:14:31;102031.13;;;8.01;100.00
56928;BME280;60850;52.502;13.426;2022-09-21T02:17:07;102028.47;;;7.99;100.00
56928;BME280;60850;52.502;13.426;2022-09-21T02:19:44;102025.81;;;7.97;100.00
56928;BME280;60850;52.502;13.426;2022-09-21T02:22:15;102024.91;;;7.97;100.00
56928;BME280;60850;52.502;13.426;2022-09-21T02:24:45;102021.34;;;7.95;100.00
56928;BME280;60850;52.502;13.426;2022-09-21T02:27:22;102021.34;;;7.95;100.00
56928;BME280;60850;52.502;13.426;2022-09-21T02:30:00;102024.00;;;7.93;100.00
56928;BME280;60850;52.502;13.426;2022-09-21T02:32:36;102031.06;;;7.93;100.00
56928;BME280;60850;52.502;13.426;2022-09-21T02:35:10;102031.06;;;7.91;100.00
56928;BME280;60850;52.502;13.426;2022-09-21T02:37:44;102030.19;;;7.94;100.00
56928;BME280;60850;52.502;13.426;2022-09-21T02:40:20;102027.53;;;7.94;100.00
56928;BME280;60850;52.502;13.426;2022-09-21T02:42:53;102032.84;;;7.92;100.00
56928;BME280;60850;52.502;13.426;2022-09-21T02:45:25;102027.53;;;7.94;100.00
56928;BME280;60850;52.502;13.426;2022-09-21T02:47:58;102035.50;;;7.91;100.00
56928;BME280;60850;52.502;13.426;2022-09-21T02:50:32;102031.94;;;7.87;100.00
56928;BME280;60850;52.502;13.426;2022-09-21T02:53:02;102045.22;;;7.87;100.00
56928;BME280;60850;52.502;13.426;2022-09-21T02:55:32;102041.66;;;7.87;100.00
56928;BME280;60850;52.502;13.426;2022-09-21T02:58:00;102041.66;;;7.84;100.00
56928;BME280;60850;52.502;13.426;2022-09-21T03:00:29;102041.66;;;7.82;100.00
56928;BME280;60850;52.502;13.426;2022-09-21T03:02:57;102041.66;;;7.84;100.00
56928;BME280;60850;52.502;13.426;2022-09-21T03:05:24;102049.63;;;7.84;100.00
56928;BME280;60850;52.502;13.426;2022-09-21T03:07:52;102053.16;;;7.83;100.00
56928;BME280;60850;52.502;13.426;2022-09-21T03:10:19;102062.91;;;7.82;100.00
56928;BME280;60850;52.502;13.426;2022-09-21T03:12:46;102054.00;;;7.82;100.00
56928;BME280;60850;52.502;13.426;2022-09-21T03:15:13;102055.78;;;7.80;100.00
56928;BME280;60850;52.502;13.426;2022-09-21T03:17:42;102059.31;;;7.80;100.00
56928;BME280;60850;52.502;13.426;2022-09-21T03:20:10;102061.97;;;7.80;100.00
56928;BME280;60850;52.502;13.426;2022-09-21T03:22:37;102062.88;;;7.79;100.00
56928;BME280;60850;52.502;13.426;2022-09-21T03:25:06;102061.09;;;7.80;100.00
56928;BME280;60850;52.502;13.426;2022-09-21T03:27:33;102060.25;;;7.84;100.00
56928;BME280;60850;52.502;13.426;2022-09-21T03:30:00;102059.38;;;7.86;100.00
56928;BME280;60850;52.502;13.426;2022-09-21T03:32:27;102060.28;;;7.93;100.00
56928;BME280;60850;52.502;13.426;2022-09-21T03:34:54;102058.56;;;8.03;100.00
56928;BME280;60850;52.502;13.426;2022-09-21T03:37:23;102066.56;;;8.09;100.00
56928;BME280;60850;52.502;13.426;2022-09-21T03:39:50;102063.94;;;8.13;100.00
56928;BME280;60850;52.502;13.426;2022-09-21T03:42:16;102056.00;;;8.18;100.00
56928;BME280;60850;52.502;13.426;2022-09-21T03:44:44;102057.78;;;8.22;100.00
56928;BME280;60850;52.502;13.426;2022-09-21T03:47:11;102057.75;;;8.17;100.00
56928;BME280;60850;52.502;13.426;2022-09-21T03:49:37;102060.41;;;8.17;100.00
56928;BME280;60850;52.502;13.426;2022-09-21T03:52:05;102062.16;;;8.14;100.00
56928;BME280;60850;52.502;13.426;2022-09-21T03:54:33;102063.03;;;8.08;100.00
56928;BME280;60850;52.502;13.426;2022-09-21T03:57:00;102057.72;;;8.07;100.00
56928;BME280;60850;52.502;13.426;2022-09-21T03:59:27;102069.19;;;8.03;100.00
56928;BME280;60850;52.502;13.426;2022-09-21T04:01:54;102061.22;;;8.01;100.00
56928;BME280;60850;52.502;13.426;2022-09-21T04:04:21;102067.41;;;8.02;100.00
56928;BME280;60850;52.502;13.426;2022-09-21T04:06:48;102070.09;;;8.05;100.00
56928;BME280;60850;52.502;13.426;2022-09-21T04:09:15;102073.66;;;8.10;100.00
56928;BME280;60850;52.502;13.426;2022-09-21T04:11:45;102076.34;;;8.17;100.00
56928;BME280;60850;52.502;13.426;2022-09-21T04:14:13;102071.06;;;8.20;100.00
56928;BME280;60850;52.502;13.426;2022-09-21T04:16:40;102071.06;;;8.23;100.00
56928;BME280;60850;52.502;13.426;2022-09-21T04:19:07;102073.72;;;8.19;100.00
56928;BME280;60850;52.502;13.426;2022-09-21T04:21:34;102071.03;;;8.14;100.00
56928;BME280;60850;52.502;13.426;2022-09-21T04:24:01;102077.19;;;8.09;100.00
56928;BME280;60850;52.502;13.426;2022-09-21T04:26:33;102076.28;;;8.04;100.00
56928;BME280;60850;52.502;13.426;2022-09-21T04:29:02;102070.91;;;7.96;100.00
56928;BME280;60850;52.502;13.426;2022-09-21T04:31:29;102068.25;;;7.96;100.00
56928;BME280;60850;52.502;13.426;2022-09-21T04:33:56;102072.69;;;7.92;100.00
56928;BME280;60850;52.502;13.426;2022-09-21T04:36:25;102063.78;;;7.86;100.00
56928;BME280;60850;52.502;13.426;2022-09-21T04:38:53;102069.97;;;7.85;100.00
56928;BME280;60850;52.502;13.426;2022-09-21T04:41:20;102070.88;;;7.85;100.00
56928;BME280;60850;52.502;13.426;2022-09-21T04:43:48;102062.91;;;7.82;100.00
56928;BME280;60850;52.502;13.426;2022-09-21T04:46:18;102068.16;;;7.79;100.00
56928;BME280;60850;52.502;13.426;2022-09-21T04:48:45;102074.38;;;7.80;100.00
56928;BME280;60850;52.502;13.426;2022-09-21T04:51:15;102065.50;;;7.79;100.00
56928;BME280;60850;52.502;13.426;2022-09-21T04:53:42;102079.72;;;7.83;100.00
56928;BME280;60850;52.502;13.426;2022-09-21T04:56:13;102077.06;;;7.84;100.00
56928;BME280;60850;52.502;13.426;2022-09-21T04:58:40;102077.06;;;7.84;100.00
56928;BME280;60850;52.502;13.426;2022-09-21T05:01:07;102074.41;;;7.83;100.00
56928;BME280;60850;52.502;13.426;2022-09-21T05:03:36;102083.25;;;7.85;100.00
56928;BME280;60850;52.502;13.426;2022-09-21T05:06:03;102081.50;;;7.87;100.00
56928;BME280;60850;52.502;13.426;2022-09-21T05:08:31;102083.31;;;7.91;100.00
56928;BME280;60850;52.502;13.426;2022-09-21T05:11:17;102085.97;;;7.95;100.00
56928;BME280;60850;52.502;13.426;2022-09-21T05:13:45;102090.41;;;7.98;100.00
56928;BME280;60850;52.502;13.426;2022-09-21T05:16:12;102081.53;;;7.96;100.00
56928;BME280;60850;52.502;13.426;2022-09-21T05:18:41;102094.88;;;8.05;100.00
56928;BME280;60850;52.502;13.426;2022-09-21T05:21:10;102102.00;;;8.12;100.00
56928;BME280;60850;52.502;13.426;2022-09-21T05:23:37;102105.59;;;8.19;100.00
56928;BME280;60850;52.502;13.426;2022-09-21T05:26:05;102110.06;;;8.26;100.00
56928;BME280;60850;52.502;13.426;2022-09-21T05:28:33;102111.84;;;8.33;100.00
56928;BME280;60850;52.502;13.426;2022-09-21T05:31:03;102119.03;;;8.46;100.00
56928;BME280;60850;52.502;13.426;2022-09-21T05:33:34;102115.50;;;8.52;100.00
56928;BME280;60850;52.502;13.426;2022-09-21T05:36:10;102118.22;;;8.63;100.00
56928;BME280;60850;52.502;13.426;2022-09-21T05:38:43;102122.66;;;8.71;100.00
56928;BME280;60850;52.502;13.426;2022-09-21T05:41:11;102120.91;;;8.79;100.00
56928;BME280;60850;52.502;13.426;2022-09-21T05:43:38;102116.50;;;8.85;100.00
56928;BME280;60850;52.502;13.426;2022-09-21T05:46:12;102115.63;;;8.89;100.00
56928;BME280;60850;52.502;13.426;2022-09-21T05:48:45;102119.19;;;8.94;100.00
56928;BME280;60850;52.502;13.426;2022-09-21T05:51:25;102114.78;;;9.06;100.00
56928;BME280;60850;52.502;13.426;2022-09-21T05:53:59;102119.25;;;9.30;100.00
56928;BME280;60850;52.502;13.426;2022-09-21T05:56:37;102119.22;;;9.64;100.00
56928;BME280;60850;52.502;13.426;2022-09-21T05:59:30;102118.28;;;10.05;100.00
56928;BME280;60850;52.502;13.426;2022-09-21T06:02:07;102120.94;;;10.29;100.00
56928;BME280;60850;52.502;13.426;2022-09-21T06:04:40;102115.56;;;10.44;100.00
56928;BME280;60850;52.502;13.426;2022-09-21T06:07:08;102119.06;;;10.57;100.00
56928;BME280;60850;52.502;13.426;2022-09-21T06:09:35;102111.88;;;10.64;100.00
56928;BME280;60850;52.502;13.426;2022-09-21T06:12:03;102113.63;;;10.76;100.00
56928;BME280;60850;52.502;13.426;2022-09-21T06:14:30;102110.91;;;10.88;100.00
56928;BME280;60850;52.502;13.426;2022-09-21T06:16:57;102118.81;;;11.02;100.00
56928;BME280;60850;52.502;13.426;2022-09-21T06:19:24;102125.84;;;11.13;100.00
56928;BME280;60850;52.502;13.426;2022-09-21T06:21:51;102116.88;;;11.25;100.00
56928;BME280;60850;52.502;13.426;2022-09-21T06:24:20;102123.94;;;11.35;100.00
56928;BME280;60850;52.502;13.426;2022-09-21T06:26:47;102122.94;;;11.45;100.00
56928;BME280;60850;52.502;13.426;2022-09-21T06:29:14;102122.84;;;11.54;100.00
56928;BME280;60850;52.502;13.426;2022-09-21T06:31:42;102121.91;;;11.65;100.00
56928;BME280;60850;52.502;13.426;2022-09-21T06:34:08;102119.13;;;11.77;100.00
56928;BME280;60850;52.502;13.426;2022-09-21T06:36:36;102128.88;;;11.84;100.00
56928;BME280;60850;52.502;13.426;2022-09-21T06:39:03;102126.13;;;11.93;100.00
56928;BME280;60850;52.502;13.426;2022-09-21T06:41:31;102125.09;;;12.03;100.00
56928;BME280;60850;52.502;13.426;2022-09-21T06:43:59;102131.31;;;12.07;100.00
56928;BME280;60850;52.502;13.426;2022-09-21T06:46:25;102132.16;;;12.14;100.00
56928;BME280;60850;52.502;13.426;2022-09-21T06:48:53;102134.78;;;12.15;100.00
56928;BME280;60850;52.502;13.426;2022-09-21T06:51:20;102138.31;;;12.17;100.00
56928;BME280;60850;52.502;13.426;2022-09-21T06:53:52;102140.97;;;12.19;100.00
56928;BME280;60850;52.502;13.426;2022-09-21T06:56:20;102134.66;;;12.27;100.00
56928;BME280;60850;52.502;13.426;2022-09-21T06:58:49;102143.41;;;12.42;100.00
56928;BME280;60850;52.502;13.426;2022-09-21T07:01:18;102138.72;;;12.62;100.00
56928;BME280;60850;52.502;13.426;2022-09-21T07:03:48;102141.09;;;12.85;100.00
56928;BME280;60850;52.502;13.426;2022-09-21T07:06:16;102147.00;;;13.08;100.00
56928;BME280;60850;52.502;13.426;2022-09-21T07:08:45;102143.13;;;13.32;100.00
56928;BME280;60850;52.502;13.426;2022-09-21T07:11:12;102139.16;;;13.56;100.00
56928;BME280;60850;52.502;13.426;2022-09-21T07:13:39;102146.03;;;13.71;100.00
56928;BME280;60850;52.502;13.426;2022-09-21T07:16:10;102152.88;;;13.90;100.00
56928;BME280;60850;52.502;13.426;2022-09-21T07:18:38;102152.50;;;14.10;100.00
56928;BME280;60850;52.502;13.426;2022-09-21T07:21:07;102137.81;;;14.29;100.00
56928;BME280;60850;52.502;13.426;2022-09-21T07:23:35;102149.22;;;14.41;100.00
56928;BME280;60850;52.502;13.426;2022-09-21T07:26:04;102143.53;;;14.57;100.00
56928;BME280;60850;52.502;13.426;2022-09-21T07:28:32;102145.75;;;14.80;100.00
56928;BME280;60850;52.502;13.426;2022-09-21T07:31:05;102143.72;;;14.92;100.00
56928;BME280;60850;52.502;13.426;2022-09-21T07:33:34;102142.47;;;15.06;100.00
56928;BME280;60850;52.502;13.426;2022-09-21T07:36:03;102149.34;;;15.20;100.00
56928;BME280;60850;52.502;13.426;2022-09-21T07:38:35;102145.25;;;15.41;100.00
56928;BME280;60850;52.502;13.426;2022-09-21T07:41:04;102141.09;;;15.66;100.00
56928;BME280;60850;52.502;13.426;2022-09-21T07:43:31;102141.53;;;15.83;100.00
56928;BME280;60850;52.502;13.426;2022-09-21T07:45:59;102142.81;;;16.03;100.00
56928;BME280;60850;52.502;13.426;2022-09-21T07:48:27;102145.75;;;16.26;100.00
56928;BME280;60850;52.502;13.426;2022-09-21T07:51:00;102141.13;;;16.62;100.00
56928;BME280;60850;52.502;13.426;2022-09-21T07:53:31;102141.63;;;16.77;100.00
56928;BME280;60850;52.502;13.426;2022-09-21T07:56:02;102144.19;;;17.11;100.00
56928;BME280;60850;52.502;13.426;2022-09-21T07:58:29;102146.81;;;17.12;100.00
56928;BME280;60850;52.502;13.426;2022-09-21T08:01:14;102152.56;;;17.01;100.00
56928;BME280;60850;52.502;13.426;2022-09-21T08:03:42;102153.13;;;16.83;100.00
56928;BME280;60850;52.502;13.426;2022-09-21T08:06:10;102151.59;;;16.74;100.00
56928;BME280;60850;52.502;13.426;2022-09-21T08:08:37;102160.69;;;16.70;100.00
56928;BME280;60850;52.502;13.426;2022-09-21T08:11:09;102150.00;;;16.66;100.00
56928;BME280;60850;52.502;13.426;2022-09-21T08:13:36;102154.28;;;16.74;100.00
56928;BME280;60850;52.502;13.426;2022-09-21T08:16:04;102147.53;;;16.89;100.00
56928;BME280;60850;52.502;13.426;2022-09-21T08:18:31;102156.97;;;17.04;100.00
56928;BME280;60850;52.502;13.426;2022-09-21T08:21:00;102154.84;;;17.15;100.00
56928;BME280;60850;52.502;13.426;2022-09-21T08:23:30;102158.28;;;17.20;100.00
56928;BME280;60850;52.502;13.426;2022-09-21T08:25:58;102156.34;;;17.24;100.00
56928;BME280;60850;52.502;13.426;2022-09-21T08:28:26;102154.69;;;17.20;100.00
56928;BME280;60850;52.502;13.426;2022-09-21T08:30:53;102160.47;;;17.08;100.00
56928;BME280;60850;52.502;13.426;2022-09-21T08:33:24;102159.06;;;16.94;100.00
56928;BME280;60850;52.502;13.426;2022-09-21T08:35:52;102163.00;;;16.83;100.00
56928;BME280;60850;52.502;13.426;2022-09-21T08:38:20;102163.06;;;16.81;100.00
56928;BME280;60850;52.502;13.426;2022-09-21T08:40:49;102154.88;;;16.84;100.00
56928;BME280;60850;52.502;13.426;2022-09-21T08:43:23;102160.00;;;16.93;100.00
56928;BME280;60850;52.502;13.426;2022-09-21T08:45:57;102172.53;;;16.94;100.00
56928;BME280;60850;52.502;13.426;2022-09-21T08:48:28;102164.91;;;17.09;100.00
56928;BME280;60850;52.502;13.426;2022-09-21T08:51:00;102167.94;;;17.27;100.00
56928;BME280;60850;52.502;13.426;2022-09-21T08:53:30;102167.06;;;17.53;100.00
56928;BME280;60850;52.502;13.426;2022-09-21T08:56:01;102162.00;;;17.72;100.00
56928;BME280;60850;52.502;13.426;2022-09-21T08:58:29;102171.06;;;17.96;100.00
56928;BME280;60850;52.502;13.426;2022-09-21T09:01:05;102166.69;;;18.19;100.00
56928;BME280;60850;52.502;13.426;2022-09-21T09:06:44;102165.56;;;18.49;100.00
56928;BME280;60850;52.502;13.426;2022-09-21T09:09:33;102173.97;;;18.66;100.00
56928;BME280;60850;52.502;13.426;2022-09-21T09:12:19;102165.97;;;18.87;100.00
56928;BME280;60850;52.502;13.426;2022-09-21T09:15:01;102171.56;;;19.06;100.00
56928;BME280;60850;52.502;13.426;2022-09-21T09:17:45;102173.84;;;19.16;100.00
56928;BME280;60850;52.502;13.426;2022-09-21T09:20:18;102172.72;;;19.22;100.00
56928;BME280;60850;52.502;13.426;2022-09-21T09:22:48;102173.41;;;19.27;100.00
56928;BME280;60850;52.502;13.426;2022-09-21T09:25:20;102176.75;;;19.34;100.00
56928;BME280;60850;52.502;13.426;2022-09-21T09:27:52;102169.72;;;19.52;100.00
56928;BME280;60850;52.502;13.426;2022-09-21T09:30:24;102177.44;;;19.62;99.81
56928;BME280;60850;52.502;13.426;2022-09-21T09:32:55;102173.50;;;19.47;98.46
56928;BME280;60850;52.502;13.426;2022-09-21T09:35:26;102177.88;;;19.28;100.00
56928;BME280;60850;52.502;13.426;2022-09-21T09:37:56;102176.31;;;18.99;100.00
56928;BME280;60850;52.502;13.426;2022-09-21T09:40:39;102179.25;;;18.93;100.00
56928;BME280;60850;52.502;13.426;2022-09-21T09:43:18;102169.63;;;18.86;100.00
56928;BME280;60850;52.502;13.426;2022-09-21T09:46:00;102175.31;;;18.78;100.00
56928;BME280;60850;52.502;13.426;2022-09-21T09:48:50;102172.28;;;18.37;100.00
56928;BME280;60850;52.502;13.426;2022-09-21T09:51:21;102180.81;;;18.00;100.00
56928;BME280;60850;52.502;13.426;2022-09-21T09:53:48;102173.66;;;17.73;100.00
56928;BME280;60850;52.502;13.426;2022-09-21T09:56:16;102182.13;;;17.61;100.00
56928;BME280;60850;52.502;13.426;2022-09-21T09:58:48;102176.41;;;17.43;100.00
56928;BME280;60850;52.502;13.426;2022-09-21T10:01:38;102175.66;;;17.38;100.00
56928;BME280;60850;52.502;13.426;2022-09-21T10:04:07;102174.41;;;17.22;100.00
56928;BME280;60850;52.502;13.426;2022-09-21T10:06:35;102170.06;;;17.16;100.00
56928;BME280;60850;52.502;13.426;2022-09-21T10:09:17;102176.47;;;17.12;100.00
56928;BME280;60850;52.502;13.426;2022-09-21T10:11:45;102167.47;;;17.13;100.00
56928;BME280;60850;52.502;13.426;2022-09-21T10:14:17;102172.81;;;17.15;100.00
56928;BME280;60850;52.502;13.426;2022-09-21T10:16:48;102169.00;;;17.22;100.00
56928;BME280;60850;52.502;13.426;2022-09-21T10:19:20;102162.56;;;17.26;100.00
56928;BME280;60850;52.502;13.426;2022-09-21T10:21:50;102172.47;;;17.25;100.00
56928;BME280;60850;52.502;13.426;2022-09-21T10:24:26;102162.47;;;17.29;100.00
56928;BME280;60850;52.502;13.426;2022-09-21T10:27:02;102165.81;;;17.37;100.00
56928;BME280;60850;52.502;13.426;2022-09-21T10:29:38;102165.19;;;17.29;100.00
56928;BME280;60850;52.502;13.426;2022-09-21T10:32:19;102163.50;;;17.25;100.00
56928;BME280;60850;52.502;13.426;2022-09-21T10:35:13;102169.19;;;17.16;100.00
56928;BME280;60850;52.502;13.426;2022-09-21T10:37:44;102159.78;;;17.29;100.00
56928;BME280;60850;52.502;13.426;2022-09-21T10:40:24;102161.25;;;17.39;100.00
56928;BME280;60850;52.502;13.426;2022-09-21T10:42:54;102159.44;;;17.40;100.00
56928;BME280;60850;52.502;13.426;2022-09-21T10:45:25;102150.25;;;17.45;100.00
56928;BME280;60850;52.502;13.426;2022-09-21T10:47:55;102145.41;;;17.56;100.00
56928;BME280;60850;52.502;13.426;2022-09-21T10:50:26;102146.75;;;17.98;98.97
56928;BME280;60850;52.502;13.426;2022-09-21T10:52:57;102140.78;;;18.38;97.86
56928;BME280;60850;52.502;13.426;2022-09-21T10:55:27;102144.34;;;18.63;94.20
56928;BME280;60850;52.502;13.426;2022-09-21T10:57:56;102140.38;;;18.97;92.45
56928;BME280;60850;52.502;13.426;2022-09-21T11:00:40;102138.50;;;18.99;80.60
56928;BME280;60850;52.502;13.426;2022-09-21T11:03:35;102130.84;;;19.10;80.32
56928;BME280;60850;52.502;13.426;2022-09-21T11:06:12;102124.34;;;18.92;80.78
56928;BME280;60850;52.502;13.426;2022-09-21T11:08:45;102130.84;;;18.63;83.49
56928;BME280;60850;52.502;13.426;2022-09-21T11:11:40;102122.38;;;18.24;87.25
56928;BME280;60850;52.502;13.426;2022-09-21T11:14:17;102127.72;;;18.01;89.70
56928;BME280;60850;52.502;13.426;2022-09-21T11:16:52;102127.66;;;17.77;93.12
56928;BME280;60850;52.502;13.426;2022-09-21T11:19:27;102127.50;;;17.54;96.42
56928;BME280;60850;52.502;13.426;2022-09-21T11:22:00;102117.53;;;17.29;98.76
56928;BME280;60850;52.502;13.426;2022-09-21T11:24:37;102124.06;;;17.22;99.18
56928;BME280;60850;52.502;13.426;2022-09-21T11:27:11;102122.25;;;17.23;97.62
56928;BME280;60850;52.502;13.426;2022-09-21T11:29:52;102121.81;;;17.37;93.59
56928;BME280;60850;52.502;13.426;2022-09-21T11:32:31;102125.66;;;17.56;89.66
56928;BME280;60850;52.502;13.426;2022-09-21T11:35:16;102124.38;;;17.94;89.98
56928;BME280;60850;52.502;13.426;2022-09-21T11:37:51;102123.97;;;18.30;90.59
56928;BME280;60850;52.502;13.426;2022-09-21T11:40:37;102134.69;;;18.33;88.60
56928;BME280;60850;52.502;13.426;2022-09-21T11:43:17;102128.34;;;18.34;90.51
56928;BME280;60850;52.502;13.426;2022-09-21T11:45:54;102128.44;;;18.31;90.33
56928;BME280;60850;52.502;13.426;2022-09-21T11:48:38;102130.31;;;18.29;90.43
56928;BME280;60850;52.502;13.426;2022-09-21T11:51:22;102122.81;;;18.37;91.02
56928;BME280;60850;52.502;13.426;2022-09-21T11:54:11;102129.28;;;18.33;87.30
56928;BME280;60850;52.502;13.426;2022-09-21T11:56:48;102112.72;;;18.42;86.34
56928;BME280;60850;52.502;13.426;2022-09-21T11:59:38;102115.31;;;18.45;86.80
56928;BME280;60850;52.502;13.426;2022-09-21T12:02:50;102116.75;;;18.30;84.01
56928;BME280;60850;52.502;13.426;2022-09-21T12:05:29;102107.63;;;18.09;87.42
56928;BME280;60850;52.502;13.426;2022-09-21T12:08:16;102112.56;;;17.72;92.48
56928;BME280;60850;52.502;13.426;2022-09-21T12:10:50;102102.88;;;17.38;96.21
56928;BME280;60850;52.502;13.426;2022-09-21T12:13:28;102103.69;;;17.14;99.43
56928;BME280;60850;52.502;13.426;2022-09-21T12:16:03;102103.44;;;16.93;100.00
56928;BME280;60850;52.502;13.426;2022-09-21T12:18:38;102101.41;;;16.72;100.00
56928;BME280;60850;52.502;13.426;2022-09-21T12:21:14;102099.84;;;16.62;100.00
56928;BME280;60850;52.502;13.426;2022-09-21T12:23:46;102103.00;;;16.46;100.00
56928;BME280;60850;52.502;13.426;2022-09-21T12:26:18;102105.31;;;16.29;100.00
56928;BME280;60850;52.502;13.426;2022-09-21T12:28:49;102102.09;;;16.16;100.00
56928;BME280;60850;52.502;13.426;2022-09-21T12:31:20;102103.22;;;16.08;100.00
56928;BME280;60850;52.502;13.426;2022-09-21T12:33:50;102104.22;;;16.04;98.53
56928;BME280;60850;52.502;13.426;2022-09-21T12:36:24;102101.22;;;16.16;99.81
56928;BME280;60850;52.502;13.426;2022-09-21T12:38:58;102086.56;;;16.26;99.57
56928;BME280;60850;52.502;13.426;2022-09-21T12:41:36;102097.06;;;16.35;97.85
56928;BME280;60850;52.502;13.426;2022-09-21T12:44:16;102090.84;;;16.33;97.10
56928;BME280;60850;52.502;13.426;2022-09-21T12:46:50;102090.75;;;16.36;98.58
56928;BME280;60850;52.502;13.426;2022-09-21T12:49:23;102084.78;;;16.25;100.00
56928;BME280;60850;52.502;13.426;2022-09-21T12:51:59;102085.59;;;16.29;100.00
56928;BME280;60850;52.502;13.426;2022-09-21T12:54:38;102084.16;;;16.46;100.00
56928;BME280;60850;52.502;13.426;2022-09-21T12:57:15;102082.56;;;16.72;100.00
56928;BME280;60850;52.502;13.426;2022-09-21T12:59:57;102083.00;;;16.86;100.00
56928;BME280;60850;52.502;13.426;2022-09-21T13:02:31;102077.31;;;16.95;100.00